Time;durP1;ratioP1;P1;durP2;ratioP2;P2;SDS_P1;SDS_P2;PMS_P1;PMS_P2;Temp;Humidity;BMP_temperature;BMP_pressure;BME280_temperature;BME280_humidity;BME280_pressure;Samples;Min_cycle;Max_cycle;Signal;HPM_P1;HPM_P2
2021/03/24 00:02:26;;;;;;;82.60;39.77;;;7.30;99.90;;;;;;5082227;28;20183;-82
2021/03/24 00:05:03;;;;;;;75.77;37.43;;;7.40;99.90;;;;;;5076049;28;20167;-83
2021/03/24 00:07:51;;;;;;;78.37;37.73;;;7.40;99.90;;;;;;5077191;28;20197;-82
2021/03/24 00:10:17;;;;;;;80.27;37.33;;;7.40;99.90;;;;;;5108724;28;20174;-82
2021/03/24 00:13:29;;;;;;;79.03;38.60;;;7.40;99.90;;;;;;5102730;28;20189;-82
2021/03/24 00:16:03;;;;;;;84.47;39.37;;;7.50;99.90;;;;;;5100651;28;20233;-82
2021/03/24 00:18:39;;;;;;;86.63;39.00;;;7.60;99.90;;;;;;5108329;28;20301;-81
2021/03/24 00:21:19;;;;;;;86.87;41.00;;;7.60;99.90;;;;;;5100416;28;20160;-82
2021/03/24 00:23:51;;;;;;;82.80;40.30;;;7.60;99.90;;;;;;5082640;28;20198;-83
2021/03/24 00:26:23;;;;;;;84.03;38.77;;;7.60;99.90;;;;;;5073162;28;20221;-83
2021/03/24 00:29:07;;;;;;;73.27;35.47;;;7.60;99.90;;;;;;5076600;28;20170;-83
2021/03/24 00:31:56;;;;;;;64.47;33.57;;;7.50;99.90;;;;;;5090662;28;20151;-83
2021/03/24 00:35:06;;;;;;;80.40;37.43;;;7.40;99.90;;;;;;5115074;28;20202;-81
2021/03/24 00:37:35;;;;;;;82.53;40.30;;;7.30;99.90;;;;;;5092579;28;20293;-81
2021/03/24 00:40:33;;;;;;;85.27;39.90;;;7.40;99.90;;;;;;5087974;28;20197;-83
2021/03/24 00:43:13;;;;;;;85.50;40.23;;;7.50;99.90;;;;;;5114820;28;20186;-82
2021/03/24 00:46:08;;;;;;;84.17;40.37;;;7.50;99.90;;;;;;5107554;28;20163;-82
2021/03/24 00:48:37;;;;;;;86.73;39.03;;;7.40;99.90;;;;;;5094678;28;20182;-81
2021/03/24 00:51:15;;;;;;;80.90;38.60;;;7.30;99.90;;;;;;5089091;28;20228;-82
2021/03/24 00:53:44;;;;;;;84.90;38.43;;;7.20;99.90;;;;;;5129097;28;20176;-82
2021/03/24 00:56:14;;;;;;;78.73;38.37;;;7.10;99.90;;;;;;5091641;28;20242;-82
2021/03/24 00:58:42;;;;;;;81.50;38.77;;;7.10;99.90;;;;;;5090492;28;20171;-82
2021/03/24 01:01:22;;;;;;;88.30;39.77;;;7.10;99.90;;;;;;5114996;28;20174;-83
2021/03/24 01:03:57;;;;;;;82.30;39.43;;;7.20;99.90;;;;;;5086458;28;20187;-83
2021/03/24 01:06:29;;;;;;;82.27;38.40;;;7.20;99.90;;;;;;5104958;28;20229;-82
2021/03/24 01:09:07;;;;;;;81.33;39.63;;;7.20;99.90;;;;;;5105555;28;20191;-82
2021/03/24 01:11:48;;;;;;;82.73;38.90;;;7.30;99.90;;;;;;5123584;28;20165;-83
2021/03/24 01:14:50;;;;;;;60.40;31.17;;;7.40;99.90;;;;;;5095848;28;20214;-83
2021/03/24 01:17:24;;;;;;;64.87;32.00;;;7.20;99.90;;;;;;5108927;28;20208;-82
2021/03/24 01:19:53;;;;;;;70.47;34.23;;;7.20;99.90;;;;;;5113054;28;20172;-82
2021/03/24 01:22:44;;;;;;;79.93;37.03;;;7.00;99.90;;;;;;5127315;28;20174;-81
2021/03/24 01:25:29;;;;;;;84.20;39.10;;;6.90;99.90;;;;;;5097323;28;20222;-81
2021/03/24 01:27:59;;;;;;;81.93;38.97;;;7.00;99.90;;;;;;5118539;28;20198;-82
2021/03/24 01:30:43;;;;;;;83.97;39.17;;;7.20;99.90;;;;;;5113252;28;20186;-81
2021/03/24 01:33:25;;;;;;;85.77;39.37;;;7.20;99.90;;;;;;5100281;28;20209;-83
2021/03/24 01:36:21;;;;;;;86.80;40.47;;;7.30;99.90;;;;;;5111310;28;20175;-81
2021/03/24 01:38:54;;;;;;;88.93;39.57;;;7.40;99.90;;;;;;5090744;28;20191;-81
2021/03/24 01:41:33;;;;;;;84.47;38.93;;;7.30;99.90;;;;;;5095014;28;20174;-82
2021/03/24 01:44:05;;;;;;;78.40;36.50;;;7.30;99.90;;;;;;5112324;28;20192;-81
2021/03/24 01:46:44;;;;;;;80.00;37.33;;;7.30;99.90;;;;;;5116565;28;20213;-82
2021/03/24 01:49:16;;;;;;;79.80;37.70;;;7.30;99.90;;;;;;5107892;28;20213;-83
2021/03/24 01:52:05;;;;;;;88.57;38.60;;;7.20;99.90;;;;;;5099335;28;20843;-82
2021/03/24 01:54:44;;;;;;;86.93;39.50;;;7.20;99.90;;;;;;5095742;28;20654;-82
2021/03/24 01:57:22;;;;;;;89.47;39.33;;;7.20;99.90;;;;;;5088186;28;20170;-82
2021/03/24 01:59:57;;;;;;;87.17;40.67;;;7.10;99.90;;;;;;5119933;28;20209;-82
2021/03/24 02:02:48;;;;;;;81.43;39.67;;;7.10;99.90;;;;;;5116548;28;20217;-83
2021/03/24 02:05:23;;;;;;;86.37;38.03;;;7.20;99.90;;;;;;5072205;28;20179;-80
2021/03/24 02:08:14;;;;;;;79.27;35.33;;;7.30;99.90;;;;;;5125741;28;20219;-82
2021/03/24 02:10:43;;;;;;;73.73;35.03;;;7.20;99.90;;;;;;5091803;28;20162;-83
2021/03/24 02:13:25;;;;;;;78.10;35.43;;;7.00;99.90;;;;;;5114836;28;20178;-82
2021/03/24 02:16:05;;;;;;;88.47;41.50;;;7.00;99.90;;;;;;5120778;28;20190;-82
2021/03/24 02:18:44;;;;;;;84.00;39.43;;;7.10;99.90;;;;;;5120500;28;20205;-81
2021/03/24 02:21:34;;;;;;;94.63;42.20;;;7.10;99.90;;;;;;5110915;28;20196;-82
2021/03/24 02:24:39;;;;;;;91.47;41.27;;;7.20;99.90;;;;;;5100993;28;20241;-82
2021/03/24 02:27:52;;;;;;;91.43;41.73;;;7.20;99.90;;;;;;5097364;28;20244;-83
2021/03/24 02:30:25;;;;;;;93.90;42.70;;;7.20;99.90;;;;;;5107742;28;20182;-83
2021/03/24 02:33:00;;;;;;;95.57;41.40;;;7.20;99.90;;;;;;5141476;27;20257;-81
2021/03/24 02:35:37;;;;;;;95.97;40.87;;;7.30;99.90;;;;;;5100338;28;20271;-82
2021/03/24 02:38:09;;;;;;;93.57;41.60;;;7.40;99.90;;;;;;5103369;28;20163;-82
2021/03/24 02:40:39;;;;;;;91.90;42.60;;;7.40;99.90;;;;;;5097213;28;20626;-80
2021/03/24 02:43:06;;;;;;;93.83;42.67;;;7.50;99.90;;;;;;5117541;28;20234;-81
2021/03/24 02:45:36;;;;;;;89.67;41.40;;;7.50;99.90;;;;;;5091112;28;20623;-82
2021/03/24 02:48:17;;;;;;;91.37;43.80;;;7.50;99.90;;;;;;5108676;28;20191;-82
2021/03/24 02:50:53;;;;;;;88.13;41.53;;;7.60;99.90;;;;;;5115281;28;20190;-82
2021/03/24 02:53:26;;;;;;;89.03;40.77;;;7.60;99.90;;;;;;5103936;28;20170;-82
2021/03/24 02:56:03;;;;;;;86.97;41.57;;;7.60;99.90;;;;;;5122573;28;20184;-83
2021/03/24 02:58:36;;;;;;;87.23;40.30;;;7.70;99.90;;;;;;5060102;28;20271;-82
2021/03/24 03:01:24;;;;;;;86.73;42.40;;;7.60;99.90;;;;;;5107059;27;20186;-82
2021/03/24 03:04:11;;;;;;;94.00;43.63;;;7.60;99.90;;;;;;5106337;28;20258;-82
2021/03/24 03:06:45;;;;;;;91.57;41.97;;;7.70;99.90;;;;;;5106617;28;20194;-84
2021/03/24 03:09:59;;;;;;;88.27;43.23;;;7.70;99.90;;;;;;5085494;28;20227;-84
2021/03/24 03:13:03;;;;;;;90.23;42.80;;;7.70;99.90;;;;;;5074792;22;20223;-84
2021/03/24 03:16:02;;;;;;;94.00;42.27;;;7.70;99.90;;;;;;5004064;28;20623;-82
2021/03/24 03:19:07;;;;;;;92.83;41.90;;;7.70;99.90;;;;;;5056886;28;20212;-83
2021/03/24 03:22:02;;;;;;;87.63;42.30;;;7.80;99.90;;;;;;4990016;28;20192;-82
2021/03/24 03:24:51;;;;;;;78.87;40.10;;;7.70;99.90;;;;;;5049283;28;20196;-84
2021/03/24 03:27:22;;;;;;;77.13;38.00;;;7.70;99.90;;;;;;5073013;28;20231;-82
2021/03/24 03:29:55;;;;;;;73.80;36.80;;;7.50;99.90;;;;;;5053745;28;20189;-82
2021/03/24 03:32:48;;;;;;;79.80;37.73;;;7.30;99.90;;;;;;5077454;28;20244;-82
2021/03/24 03:35:28;;;;;;;74.40;37.17;;;7.10;99.90;;;;;;5086138;28;20175;-82
2021/03/24 03:38:05;;;;;;;80.43;39.07;;;7.10;99.90;;;;;;5057789;28;20177;-82
2021/03/24 03:40:55;;;;;;;79.77;39.97;;;7.10;99.90;;;;;;5053575;28;20169;-82
2021/03/24 03:43:26;;;;;;;81.70;39.63;;;7.00;99.90;;;;;;5053094;28;20206;-81
2021/03/24 03:46:35;;;;;;;82.13;38.37;;;7.00;99.90;;;;;;5074008;28;20184;-82
2021/03/24 03:49:05;;;;;;;85.10;39.57;;;7.00;99.90;;;;;;5078033;22;20228;-81
2021/03/24 03:51:45;;;;;;;81.87;40.67;;;7.00;99.90;;;;;;5069154;28;20224;-82
2021/03/24 03:58:42;;;;;;;91.13;42.13;;;7.10;99.90;;;;;;5038689;28;20197;-81
2021/03/24 04:01:26;;;;;;;93.73;43.03;;;7.10;99.90;;;;;;5062696;28;20212;-83
2021/03/24 04:04:07;;;;;;;96.13;44.50;;;7.20;99.90;;;;;;5061203;28;20192;-81
2021/03/24 04:06:41;;;;;;;103.43;45.73;;;7.20;99.90;;;;;;5034682;28;20279;-82
2021/03/24 04:09:17;;;;;;;96.90;44.17;;;7.20;99.90;;;;;;5048108;28;20206;-81
2021/03/24 04:12:32;;;;;;;98.67;44.70;;;7.30;99.90;;;;;;5065882;22;20237;-81
2021/03/24 04:15:05;;;;;;;91.67;42.97;;;7.40;99.90;;;;;;5077031;28;20171;-81
2021/03/24 04:17:49;;;;;;;87.43;43.07;;;7.40;99.90;;;;;;5070996;28;20187;-81
2021/03/24 04:20:36;;;;;;;93.77;42.03;;;7.40;99.90;;;;;;5072953;28;20278;-82
2021/03/24 04:23:13;;;;;;;89.37;42.30;;;7.40;99.90;;;;;;5073047;28;20219;-83
2021/03/24 04:26:11;;;;;;;97.03;46.07;;;7.40;99.90;;;;;;5074174;28;20186;-81
2021/03/24 04:29:26;;;;;;;93.23;42.63;;;7.50;99.90;;;;;;5091407;28;20210;-81
2021/03/24 04:32:06;;;;;;;94.23;44.47;;;7.50;99.90;;;;;;5070761;28;20179;-82
2021/03/24 04:34:40;;;;;;;96.07;44.10;;;7.60;99.90;;;;;;5040659;28;20164;-81
2021/03/24 04:37:30;;;;;;;96.00;45.13;;;7.60;99.90;;;;;;5073432;28;20160;-81
2021/03/24 04:40:48;;;;;;;97.23;43.70;;;7.60;99.90;;;;;;5069146;28;20191;-81
2021/03/24 04:43:18;;;;;;;90.43;43.43;;;7.60;99.90;;;;;;5051621;28;20275;-80
2021/03/24 04:45:50;;;;;;;101.10;43.57;;;7.50;99.90;;;;;;5062176;28;20222;-81
2021/03/24 04:48:25;;;;;;;102.87;43.60;;;7.50;99.90;;;;;;5071037;28;20236;-80
2021/03/24 04:51:04;;;;;;;95.37;43.67;;;7.40;99.90;;;;;;5079154;28;20201;-80
2021/03/24 04:53:49;;;;;;;91.47;43.20;;;7.30;99.90;;;;;;5090574;28;20190;-82
2021/03/24 04:56:18;;;;;;;89.73;41.90;;;7.30;99.90;;;;;;5058655;28;20274;-81
2021/03/24 04:58:53;;;;;;;86.53;41.37;;;7.30;99.90;;;;;;5096511;28;20168;-81
2021/03/24 05:01:36;;;;;;;91.83;42.37;;;7.20;99.90;;;;;;5063277;22;20230;-81
2021/03/24 05:04:36;;;;;;;92.73;42.00;;;7.30;99.90;;;;;;5063191;28;20197;-81
2021/03/24 05:07:32;;;;;;;93.40;43.13;;;7.30;99.90;;;;;;5055765;28;20200;-81
2021/03/24 05:10:34;;;;;;;94.33;41.93;;;7.30;99.90;;;;;;5053883;28;20193;-81
2021/03/24 05:13:34;;;;;;;95.87;42.73;;;7.40;99.90;;;;;;5060613;28;20164;-80
2021/03/24 05:17:01;;;;;;;97.83;44.53;;;7.30;99.90;;;;;;5057860;28;20177;-80
2021/03/24 05:19:43;;;;;;;95.70;43.90;;;7.30;99.90;;;;;;4909323;29;20195;-81
2021/03/24 05:22:26;;;;;;;107.13;45.23;;;7.30;99.90;;;;;;4950717;29;20192;-80
2021/03/24 05:24:58;;;;;;;95.03;43.13;;;7.30;99.90;;;;;;5067656;28;20187;-81
2021/03/24 05:27:58;;;;;;;97.47;42.13;;;7.20;99.90;;;;;;5073273;28;20215;-81
2021/03/24 05:31:12;;;;;;;94.73;41.70;;;7.20;99.90;;;;;;5038927;28;20191;-81
2021/03/24 05:34:25;;;;;;;88.20;41.83;;;7.10;99.90;;;;;;5059978;28;20184;-81
2021/03/24 05:36:57;;;;;;;88.90;39.70;;;7.20;99.90;;;;;;5068226;28;20184;-81
2021/03/24 05:39:38;;;;;;;87.97;41.00;;;7.20;99.90;;;;;;5059567;28;20179;-81
2021/03/24 05:42:43;;;;;;;94.47;41.47;;;7.20;99.90;;;;;;5064449;28;20184;-81
2021/03/24 05:49:11;;;;;;;93.87;41.93;;;7.30;99.90;;;;;;5035166;28;20191;-80
2021/03/24 05:52:21;;;;;;;85.23;40.47;;;7.50;99.90;;;;;;5056986;28;20172;-81
2021/03/24 05:55:17;;;;;;;85.57;39.17;;;7.50;99.90;;;;;;5054030;28;20180;-81
2021/03/24 05:58:28;;;;;;;85.37;40.17;;;7.50;99.90;;;;;;5056492;28;20196;-82
2021/03/24 06:01:00;;;;;;;86.43;40.73;;;7.60;99.90;;;;;;5051887;28;20180;-81
2021/03/24 06:04:05;;;;;;;80.33;39.27;;;7.60;99.90;;;;;;5045884;28;20207;-82
2021/03/24 06:07:06;;;;;;;91.03;39.70;;;7.80;99.90;;;;;;5042123;28;20215;-83
2021/03/24 06:09:54;;;;;;;84.70;38.07;;;8.00;99.90;;;;;;5033680;28;20180;-82
2021/03/24 06:12:36;;;;;;;86.73;39.73;;;8.10;99.90;;;;;;5072904;23;20236;-83
2021/03/24 06:15:19;;;;;;;85.47;39.67;;;8.10;99.90;;;;;;5034352;28;20188;-83
2021/03/24 06:18:30;;;;;;;83.17;37.47;;;8.20;99.90;;;;;;4999992;28;20240;-83
2021/03/24 06:21:04;;;;;;;73.83;37.63;;;8.00;99.90;;;;;;4989276;28;20308;-83
2021/03/24 06:23:58;;;;;;;80.27;38.17;;;8.20;99.90;;;;;;5006906;28;20193;-83
2021/03/24 06:26:57;;;;;;;85.57;37.60;;;8.20;99.90;;;;;;5016576;28;20208;-83
2021/03/24 06:29:45;;;;;;;85.30;37.70;;;8.30;99.90;;;;;;5015359;28;20258;-83
2021/03/24 06:32:38;;;;;;;85.30;38.40;;;8.40;99.90;;;;;;5029118;28;20178;-83
2021/03/24 06:35:18;;;;;;;79.67;37.87;;;8.50;99.90;;;;;;5031320;28;20245;-82
2021/03/24 06:38:14;;;;;;;76.37;37.77;;;8.60;99.90;;;;;;5000499;28;20198;-82
2021/03/24 06:40:57;;;;;;;78.40;38.17;;;8.80;99.90;;;;;;5043553;28;20278;-82
2021/03/24 06:43:54;;;;;;;79.57;38.10;;;9.00;99.90;;;;;;5030505;28;20280;-82
2021/03/24 06:46:55;;;;;;;70.50;34.80;;;9.70;99.90;;;;;;4986300;28;20256;-82
2021/03/24 06:49:49;;;;;;;71.90;35.43;;;11.50;99.90;;;;;;5015099;28;20204;-81
2021/03/24 06:52:40;;;;;;;69.00;33.80;;;13.10;99.90;;;;;;5019841;28;20189;-83
2021/03/24 06:55:33;;;;;;;62.97;33.83;;;14.60;99.90;;;;;;5032007;28;20225;-82
2021/03/24 06:58:33;;;;;;;66.27;35.47;;;15.90;99.90;;;;;;5017346;28;20182;-82
2021/03/24 07:01:26;;;;;;;68.57;35.77;;;16.80;99.90;;;;;;5028929;28;20202;-82
2021/03/24 07:03:52;;;;;;;69.10;35.80;;;17.60;99.90;;;;;;5040114;28;20194;-82
2021/03/24 07:06:48;;;;;;;63.10;34.73;;;18.30;99.90;;;;;;5005771;28;20280;-83
2021/03/24 07:09:32;;;;;;;62.80;34.97;;;18.20;99.90;;;;;;4995606;28;20188;-82
2021/03/24 07:12:04;;;;;;;56.77;34.47;;;18.90;99.90;;;;;;4996909;28;20248;-83
2021/03/24 07:15:07;;;;;;;58.07;33.93;;;20.00;98.30;;;;;;4994977;28;20193;-82
2021/03/24 07:18:04;;;;;;;60.23;35.33;;;20.10;95.20;;;;;;5009269;28;20207;-83
2021/03/24 07:21:07;;;;;;;61.27;35.40;;;20.00;94.90;;;;;;4995122;28;20553;-82
2021/03/24 07:23:48;;;;;;;62.77;36.47;;;20.60;93.50;;;;;;4991553;28;20195;-82
2021/03/24 07:27:00;;;;;;;60.03;35.43;;;21.20;91.30;;;;;;5000317;28;20691;-82
2021/03/24 07:29:44;;;;;;;61.20;36.87;;;22.20;90.10;;;;;;4992218;28;20619;-83
2021/03/24 07:32:20;;;;;;;61.53;36.37;;;22.70;85.50;;;;;;4980491;28;20194;-83
2021/03/24 07:34:52;;;;;;;68.23;36.60;;;22.40;83.90;;;;;;4979442;28;20191;-83
2021/03/24 07:37:56;;;;;;;58.00;35.17;;;22.90;81.50;;;;;;5012500;28;20184;-81
2021/03/24 07:40:47;;;;;;;56.27;34.63;;;24.10;80.10;;;;;;4976006;28;20679;-80
2021/03/24 07:43:37;;;;;;;57.07;35.83;;;25.00;73.30;;;;;;4993075;28;20196;-83
2021/03/24 07:46:30;;;;;;;58.77;35.23;;;25.30;71.00;;;;;;4994183;28;20186;-82
2021/03/24 07:49:05;;;;;;;59.13;36.33;;;25.40;69.10;;;;;;5000123;28;20177;-83
2021/03/24 07:51:42;;;;;;;59.13;36.13;;;25.00;66.80;;;;;;5009902;28;20296;-83
2021/03/24 07:54:31;;;;;;;55.30;35.33;;;25.40;67.70;;;;;;4993038;28;20602;-83
2021/03/24 07:57:06;;;;;;;59.43;35.47;;;25.70;66.30;;;;;;4981152;28;20181;-81
2021/03/24 07:59:58;;;;;;;54.80;35.00;;;26.10;64.40;;;;;;5002218;28;20185;-83
2021/03/24 08:02:46;;;;;;;54.20;35.13;;;26.60;62.80;;;;;;5007703;28;20564;-83
2021/03/24 08:05:50;;;;;;;56.17;36.30;;;27.40;61.90;;;;;;4993760;28;20594;-81
2021/03/24 08:08:26;;;;;;;55.65;36.08;;;27.50;59.30;;;;;;4976010;28;20225;-83
2021/03/24 08:11:17;;;;;;;58.33;36.83;;;28.10;58.60;;;;;;4975333;28;20274;-83
2021/03/24 08:14:02;;;;;;;57.00;35.67;;;26.80;58.10;;;;;;4974835;28;20569;-81
2021/03/24 08:17:01;;;;;;;61.53;37.03;;;26.80;59.70;;;;;;5022983;28;20213;-81
2021/03/24 08:20:04;;;;;;;55.90;36.03;;;26.80;59.30;;;;;;4994011;28;20197;-83
2021/03/24 08:22:54;;;;;;;59.85;36.17;;;27.20;58.20;;;;;;4994103;28;20197;-84
2021/03/24 08:25:53;;;;;;;57.92;35.35;;;27.20;57.90;;;;;;5013853;28;20275;-84
2021/03/24 08:28:48;;;;;;;59.10;36.63;;;27.50;57.60;;;;;;5000169;28;20209;-82
2021/03/24 08:31:18;;;;;;;56.38;35.55;;;27.70;56.70;;;;;;4978971;28;20210;-83
2021/03/24 08:33:49;;;;;;;59.72;36.80;;;28.20;55.60;;;;;;5010229;28;20181;-83
2021/03/24 08:36:40;;;;;;;59.47;36.33;;;27.90;56.80;;;;;;5006052;28;20189;-83
2021/03/24 08:39:29;;;;;;;58.50;36.55;;;27.40;57.40;;;;;;5014760;28;20257;-81
2021/03/24 08:42:25;;;;;;;60.08;37.17;;;28.20;55.60;;;;;;5008172;28;20653;-83
2021/03/24 08:45:18;;;;;;;57.33;35.08;;;28.80;54.40;;;;;;5027943;28;20182;-83
2021/03/24 08:47:48;;;;;;;57.38;36.53;;;28.70;53.90;;;;;;4994259;28;20220;-81
2021/03/24 08:50:20;;;;;;;62.10;37.08;;;29.50;53.80;;;;;;4993602;28;20181;-81
2021/03/24 08:52:53;;;;;;;59.42;35.70;;;29.70;52.10;;;;;;4982433;28;20668;-80
2021/03/24 08:55:55;;;;;;;57.00;35.65;;;30.10;51.80;;;;;;4992833;28;20238;-81
2021/03/24 08:58:24;;;;;;;58.45;36.55;;;30.60;51.80;;;;;;5005730;28;20182;-82
2021/03/24 09:01:12;;;;;;;52.70;34.42;;;31.00;50.30;;;;;;4980641;28;20182;-81
2021/03/24 09:03:50;;;;;;;57.38;35.78;;;30.90;50.80;;;;;;5008354;28;20202;-82
2021/03/24 09:06:53;;;;;;;55.25;33.58;;;30.60;49.90;;;;;;4997843;28;20193;-83
2021/03/24 09:09:38;;;;;;;59.70;36.58;;;30.20;50.60;;;;;;4981836;28;20185;-82
2021/03/24 09:12:15;;;;;;;55.10;34.30;;;29.60;49.90;;;;;;4993124;28;20288;-81
2021/03/24 09:14:56;;;;;;;56.13;35.10;;;28.60;51.20;;;;;;4996029;28;20189;-82
2021/03/24 09:17:28;;;;;;;56.10;34.77;;;27.90;52.40;;;;;;5010719;28;20232;-82
2021/03/24 09:20:20;;;;;;;62.87;35.77;;;25.80;55.20;;;;;;4977684;28;20576;-81
2021/03/24 09:23:03;;;;;;;60.23;36.00;;;24.30;57.30;;;;;;4986408;28;20409;-82
2021/03/24 09:25:28;;;;;;;64.20;36.20;;;22.90;59.30;;;;;;4985090;28;20237;-82
2021/03/24 09:28:09;;;;;;;64.00;35.90;;;21.40;62.30;;;;;;4979733;28;20782;-82
2021/03/24 09:31:04;;;;;;;59.43;33.83;;;20.30;65.30;;;;;;4995560;28;20243;-82
2021/03/24 09:33:50;;;;;;;62.37;34.13;;;19.60;69.10;;;;;;4979813;28;20191;-82
2021/03/24 09:36:24;;;;;;;69.47;35.40;;;19.10;72.20;;;;;;4983704;28;20198;-81
2021/03/24 09:38:53;;;;;;;68.73;37.03;;;18.60;71.90;;;;;;4996655;28;20645;-80
2021/03/24 09:41:18;;;;;;;66.93;35.47;;;18.50;74.50;;;;;;5015857;28;20180;-82
2021/03/24 09:44:01;;;;;;;63.17;35.10;;;18.40;75.40;;;;;;4999782;28;20599;-82
2021/03/24 09:46:51;;;;;;;59.93;32.33;;;18.40;76.90;;;;;;4991753;28;20209;-82
2021/03/24 09:49:23;;;;;;;64.30;35.00;;;18.20;76.40;;;;;;4978528;28;20723;-82
2021/03/24 09:52:20;;;;;;;61.73;33.47;;;18.20;76.50;;;;;;4984812;28;20232;-82
2021/03/24 09:55:06;;;;;;;61.07;32.93;;;18.00;77.90;;;;;;5012870;28;20182;-82
2021/03/24 09:58:10;;;;;;;62.37;33.30;;;18.10;77.80;;;;;;4997197;28;20269;-83
2021/03/24 10:00:49;;;;;;;56.00;31.93;;;19.00;76.70;;;;;;4982445;28;20258;-82
2021/03/24 10:03:30;;;;;;;57.37;31.07;;;21.30;74.30;;;;;;4997213;28;20192;-82
2021/03/24 10:06:01;;;;;;;51.57;29.07;;;24.10;66.50;;;;;;5032634;28;20198;-83
2021/03/24 10:08:46;;;;;;;54.47;31.23;;;25.70;62.10;;;;;;4993501;28;20226;-83
2021/03/24 10:11:29;;;;;;;53.83;30.93;;;26.00;59.60;;;;;;4985945;28;20189;-83
2021/03/24 10:14:09;;;;;;;54.80;33.07;;;25.00;58.40;;;;;;5008450;28;20635;-81
2021/03/24 10:16:39;;;;;;;55.70;32.73;;;24.70;59.70;;;;;;4997270;28;20231;-83
2021/03/24 10:19:30;;;;;;;55.70;33.43;;;25.70;60.30;;;;;;4995596;28;20190;-84
2021/03/24 10:22:09;;;;;;;53.10;32.43;;;25.90;58.40;;;;;;4996999;28;20194;-83
2021/03/24 10:24:49;;;;;;;48.77;29.90;;;26.40;57.70;;;;;;4996082;28;20236;-83
2021/03/24 10:27:20;;;;;;;48.13;29.00;;;27.00;57.50;;;;;;4991807;28;20193;-82
2021/03/24 10:30:23;;;;;;;44.05;29.08;;;28.10;57.10;;;;;;4994799;28;20177;-83
2021/03/24 10:33:08;;;;;;;46.28;28.48;;;29.40;54.40;;;;;;4996087;28;20347;-84
2021/03/24 10:35:45;;;;;;;39.85;25.30;;;28.90;53.40;;;;;;4994516;28;20201;-84
2021/03/24 10:38:18;;;;;;;37.80;24.63;;;28.10;53.00;;;;;;5008142;28;20216;-82
2021/03/24 10:40:51;;;;;;;42.03;24.95;;;27.40;54.20;;;;;;4974250;28;20553;-82
2021/03/24 10:43:30;;;;;;;43.03;26.55;;;26.90;54.60;;;;;;4977609;28;20205;-81
2021/03/24 10:46:28;;;;;;;44.70;26.70;;;26.10;56.10;;;;;;5006818;28;20243;-84
2021/03/24 10:49:04;;;;;;;47.20;28.07;;;25.70;56.10;;;;;;4988153;28;20206;-83
2021/03/24 10:51:39;;;;;;;45.37;28.20;;;24.50;58.60;;;;;;4993020;28;20200;-83
2021/03/24 10:54:33;;;;;;;47.13;26.67;;;24.70;58.90;;;;;;4997322;28;20185;-82
2021/03/24 10:57:28;;;;;;;45.20;27.57;;;24.70;58.80;;;;;;4975224;28;20232;-83
2021/03/24 11:00:22;;;;;;;53.43;29.37;;;24.40;61.00;;;;;;5012440;28;20259;-84
2021/03/24 11:02:59;;;;;;;43.63;26.17;;;23.40;60.00;;;;;;5006776;28;20182;-83
2021/03/24 11:05:39;;;;;;;47.03;26.97;;;23.00;61.70;;;;;;5029543;28;20268;-83
2021/03/24 11:08:21;;;;;;;50.77;29.77;;;23.00;62.70;;;;;;5029156;28;20681;-83
2021/03/24 11:10:55;;;;;;;50.37;28.97;;;23.30;61.40;;;;;;5013136;28;20582;-83
2021/03/24 11:13:42;;;;;;;47.47;27.73;;;23.80;62.00;;;;;;5018473;28;20220;-83
2021/03/24 11:16:16;;;;;;;42.43;24.17;;;24.00;61.80;;;;;;5013806;28;20181;-82
2021/03/24 11:18:45;;;;;;;41.97;23.73;;;23.60;61.40;;;;;;5028464;28;20730;-84
2021/03/24 11:21:26;;;;;;;36.27;22.10;;;23.30;61.30;;;;;;5011595;28;20188;-83
2021/03/24 11:24:20;;;;;;;37.10;21.73;;;23.10;61.50;;;;;;5014897;28;20189;-83
2021/03/24 11:27:03;;;;;;;39.30;21.63;;;22.60;62.90;;;;;;5023357;28;20203;-84
2021/03/24 11:29:31;;;;;;;35.93;20.20;;;22.10;62.70;;;;;;4997970;28;20858;-84
2021/03/24 11:32:22;;;;;;;38.73;21.07;;;21.90;62.80;;;;;;5018728;28;20250;-82
2021/03/24 11:34:57;;;;;;;36.00;20.00;;;21.00;64.50;;;;;;5021275;28;20185;-83
2021/03/24 11:37:33;;;;;;;38.90;20.57;;;21.10;65.90;;;;;;5014517;28;20181;-83
2021/03/24 11:40:11;;;;;;;40.73;20.53;;;21.20;65.20;;;;;;5023907;28;20186;-83
2021/03/24 11:42:37;;;;;;;42.77;21.20;;;21.40;66.20;;;;;;5031150;28;20321;-83
2021/03/24 11:45:11;;;;;;;38.07;20.63;;;22.00;66.50;;;;;;4996220;28;20281;-82
2021/03/24 11:48:01;;;;;;;38.30;19.77;;;22.10;64.90;;;;;;5017619;28;20580;-84
2021/03/24 11:50:49;;;;;;;35.40;20.40;;;21.60;65.50;;;;;;5000314;28;20205;-82
2021/03/24 11:53:48;;;;;;;37.53;19.53;;;21.80;64.80;;;;;;4999945;28;20269;-84
2021/03/24 11:56:36;;;;;;;37.83;19.80;;;22.60;64.10;;;;;;4999551;28;20177;-83
2021/03/24 11:59:40;;;;;;;35.07;18.43;;;23.00;62.20;;;;;;5019283;28;20278;-84
2021/03/24 12:02:39;;;;;;;34.63;17.73;;;23.00;62.10;;;;;;4951081;28;20197;-84
2021/03/24 12:05:05;;;;;;;32.63;17.93;;;22.60;61.90;;;;;;5014316;28;20176;-84
2021/03/24 12:07:56;;;;;;;36.80;18.50;;;22.60;60.70;;;;;;5013232;28;20824;-84
2021/03/24 12:10:44;;;;;;;32.40;17.20;;;22.50;63.30;;;;;;5014033;28;20196;-85
2021/03/24 12:13:17;;;;;;;29.07;15.57;;;23.20;62.70;;;;;;5025541;28;20233;-85
2021/03/24 12:15:43;;;;;;;31.63;15.23;;;23.80;60.00;;;;;;5046954;28;20183;-86
2021/03/24 12:18:18;;;;;;;28.00;14.23;;;24.30;58.30;;;;;;5023693;28;20185;-85
2021/03/24 12:21:02;;;;;;;26.00;14.90;;;24.30;56.80;;;;;;5030888;28;20188;-85
2021/03/24 12:23:36;;;;;;;28.63;15.40;;;24.50;57.60;;;;;;5036322;28;20211;-86
2021/03/24 12:26:04;;;;;;;26.70;14.00;;;24.60;57.20;;;;;;5032574;28;20199;-85
2021/03/24 12:28:39;;;;;;;26.20;12.47;;;24.80;55.10;;;;;;5015473;28;20208;-84
2021/03/24 12:31:09;;;;;;;24.57;13.50;;;24.00;55.20;;;;;;5049150;28;20551;-85
2021/03/24 12:33:39;;;;;;;27.33;15.03;;;24.20;55.20;;;;;;5009150;28;20640;-84
2021/03/24 12:36:08;;;;;;;27.67;13.47;;;24.60;56.10;;;;;;5033694;28;20612;-85
2021/03/24 12:38:44;;;;;;;25.57;12.93;;;24.80;54.20;;;;;;5019407;28;20185;-85
2021/03/24 12:41:10;;;;;;;22.17;12.13;;;25.00;55.20;;;;;;5015662;28;20211;-85
2021/03/24 12:43:40;;;;;;;24.17;12.67;;;25.50;53.50;;;;;;5028870;28;20295;-85
2021/03/24 12:46:15;;;;;;;22.10;12.27;;;25.40;54.20;;;;;;5020444;28;20207;-86
2021/03/24 12:48:49;;;;;;;23.60;12.83;;;25.30;52.70;;;;;;5030521;28;20564;-84
2021/03/24 12:51:31;;;;;;;24.42;11.73;;;26.00;52.70;;;;;;5033762;28;20184;-83
2021/03/24 12:54:08;;;;;;;21.58;11.52;;;25.60;52.30;;;;;;5013215;28;20274;-84
2021/03/24 12:56:42;;;;;;;23.37;12.70;;;25.40;55.20;;;;;;5033999;28;20208;-85
2021/03/24 12:59:26;;;;;;;22.27;11.90;;;24.60;53.40;;;;;;5030496;28;20337;-85
2021/03/24 13:02:01;;;;;;;25.23;11.87;;;23.70;56.10;;;;;;5033004;28;20907;-83
2021/03/24 13:04:48;;;;;;;21.10;11.43;;;23.30;56.10;;;;;;5034206;28;20207;-85
2021/03/24 13:07:52;;;;;;;21.40;11.60;;;22.70;56.70;;;;;;5035560;28;20638;-82
2021/03/24 13:10:32;;;;;;;23.97;12.10;;;22.10;57.20;;;;;;4992482;28;20227;-83
2021/03/24 13:13:17;;;;;;;25.77;13.07;;;21.50;58.60;;;;;;5030394;28;20310;-84
2021/03/24 13:15:48;;;;;;;23.23;13.23;;;20.60;59.60;;;;;;5031278;28;20186;-85
2021/03/24 13:18:25;;;;;;;27.23;13.93;;;20.20;62.60;;;;;;5032366;28;20283;-83
2021/03/24 13:21:29;;;;;;;28.87;13.87;;;19.70;63.10;;;;;;5036029;28;20187;-85
2021/03/24 13:24:09;;;;;;;27.63;14.63;;;19.60;63.60;;;;;;5037023;28;20196;-83
2021/03/24 13:26:37;;;;;;;26.03;14.30;;;19.60;62.80;;;;;;5033298;28;20206;-84
2021/03/24 13:29:30;;;;;;;28.23;14.23;;;19.30;65.80;;;;;;5020040;28;20186;-84
2021/03/24 13:32:21;;;;;;;30.57;15.77;;;19.20;66.20;;;;;;5037455;28;20179;-83
2021/03/24 13:35:06;;;;;;;30.70;15.80;;;19.30;66.40;;;;;;5035765;28;20187;-84
2021/03/24 13:37:32;;;;;;;26.50;14.67;;;19.10;67.10;;;;;;5037275;28;20686;-84
2021/03/24 13:40:04;;;;;;;30.03;15.83;;;19.10;66.30;;;;;;5017355;28;20202;-84
2021/03/24 13:42:38;;;;;;;29.10;15.00;;;19.00;66.00;;;;;;5036322;28;20215;-83
2021/03/24 13:45:23;;;;;;;29.57;15.43;;;19.00;68.30;;;;;;5038723;28;20205;-85
2021/03/24 13:48:19;;;;;;;26.93;13.87;;;19.10;66.70;;;;;;5031719;28;20210;-84
2021/03/24 13:51:02;;;;;;;28.67;14.50;;;19.20;66.90;;;;;;5053252;28;20201;-85
2021/03/24 13:53:43;;;;;;;28.60;14.67;;;19.30;68.00;;;;;;5036382;28;20188;-84
2021/03/24 13:56:38;;;;;;;29.13;15.60;;;19.40;66.30;;;;;;5024757;28;20232;-85
2021/03/24 13:59:35;;;;;;;27.93;14.30;;;19.40;67.40;;;;;;5071383;28;20208;-84
2021/03/24 14:02:26;;;;;;;29.60;14.43;;;19.40;65.00;;;;;;5035165;28;20276;-85
2021/03/24 14:05:05;;;;;;;29.40;13.90;;;19.10;66.00;;;;;;5020155;28;20184;-83